sensor_id;sensor_type;location;lat;lon;timestamp;P1;durP1;ratioP1;P2;durP2;ratioP2
44139;SDS011;29803;51.048;4.686;2023-03-14T00:01:35;5.80;;;1.30;;
44139;SDS011;29803;51.048;4.686;2023-03-14T00:04:06;5.63;;;1.63;;
44139;SDS011;29803;51.048;4.686;2023-03-14T00:06:36;6.70;;;1.55;;
44139;SDS011;29803;51.048;4.686;2023-03-14T00:09:07;3.67;;;1.05;;
44139;SDS011;29803;51.048;4.686;2023-03-14T00:11:37;6.65;;;1.35;;
44139;SDS011;29803;51.048;4.686;2023-03-14T00:14:08;8.05;;;1.83;;
44139;SDS011;29803;51.048;4.686;2023-03-14T00:16:38;11.50;;;1.40;;
44139;SDS011;29803;51.048;4.686;2023-03-14T00:19:09;4.65;;;1.20;;
44139;SDS011;29803;51.048;4.686;2023-03-14T00:21:39;7.43;;;1.23;;
44139;SDS011;29803;51.048;4.686;2023-03-14T00:24:10;8.27;;;1.60;;
44139;SDS011;29803;51.048;4.686;2023-03-14T00:26:40;11.15;;;1.42;;
44139;SDS011;29803;51.048;4.686;2023-03-14T00:29:11;7.60;;;1.77;;
44139;SDS011;29803;51.048;4.686;2023-03-14T00:31:41;7.60;;;1.73;;
44139;SDS011;29803;51.048;4.686;2023-03-14T00:34:11;9.15;;;1.40;;
44139;SDS011;29803;51.048;4.686;2023-03-14T00:36:42;10.95;;;2.08;;
44139;SDS011;29803;51.048;4.686;2023-03-14T00:39:12;13.65;;;1.52;;
44139;SDS011;29803;51.048;4.686;2023-03-14T00:41:43;8.88;;;1.67;;
44139;SDS011;29803;51.048;4.686;2023-03-14T00:44:13;9.82;;;1.52;;
44139;SDS011;29803;51.048;4.686;2023-03-14T00:46:44;8.25;;;1.70;;
44139;SDS011;29803;51.048;4.686;2023-03-14T00:49:14;7.40;;;1.98;;
44139;SDS011;29803;51.048;4.686;2023-03-14T00:51:45;8.85;;;1.95;;
44139;SDS011;29803;51.048;4.686;2023-03-14T00:54:15;7.60;;;1.73;;
44139;SDS011;29803;51.048;4.686;2023-03-14T00:56:46;8.13;;;1.60;;
44139;SDS011;29803;51.048;4.686;2023-03-14T00:59:16;8.80;;;1.80;;
44139;SDS011;29803;51.048;4.686;2023-03-14T01:01:47;12.10;;;1.70;;
44139;SDS011;29803;51.048;4.686;2023-03-14T01:04:18;7.07;;;1.60;;
44139;SDS011;29803;51.048;4.686;2023-03-14T01:06:48;12.77;;;2.75;;
44139;SDS011;29803;51.048;4.686;2023-03-14T01:09:18;9.05;;;2.17;;
44139;SDS011;29803;51.048;4.686;2023-03-14T01:11:49;11.90;;;1.67;;
44139;SDS011;29803;51.048;4.686;2023-03-14T01:14:19;10.05;;;1.70;;
44139;SDS011;29803;51.048;4.686;2023-03-14T01:16:50;17.30;;;2.00;;
44139;SDS011;29803;51.048;4.686;2023-03-14T01:19:20;10.25;;;2.40;;
44139;SDS011;29803;51.048;4.686;2023-03-14T01:21:51;8.80;;;2.45;;
44139;SDS011;29803;51.048;4.686;2023-03-14T01:24:21;10.57;;;1.73;;
44139;SDS011;29803;51.048;4.686;2023-03-14T01:26:52;13.70;;;2.03;;
44139;SDS011;29803;51.048;4.686;2023-03-14T01:29:22;14.40;;;2.30;;
44139;SDS011;29803;51.048;4.686;2023-03-14T01:31:53;9.93;;;2.10;;
44139;SDS011;29803;51.048;4.686;2023-03-14T01:34:23;10.50;;;1.83;;
44139;SDS011;29803;51.048;4.686;2023-03-14T01:36:54;10.38;;;1.60;;
44139;SDS011;29803;51.048;4.686;2023-03-14T01:39:24;8.48;;;1.67;;
44139;SDS011;29803;51.048;4.686;2023-03-14T01:41:54;17.45;;;2.22;;
44139;SDS011;29803;51.048;4.686;2023-03-14T01:44:25;17.73;;;2.17;;
44139;SDS011;29803;51.048;4.686;2023-03-14T01:46:55;11.80;;;2.05;;
44139;SDS011;29803;51.048;4.686;2023-03-14T01:49:27;9.20;;;1.83;;
44139;SDS011;29803;51.048;4.686;2023-03-14T01:52:02;18.08;;;2.30;;
44139;SDS011;29803;51.048;4.686;2023-03-14T02:00:17;15.98;;;2.42;;
44139;SDS011;29803;51.048;4.686;2023-03-14T02:02:51;8.73;;;1.95;;
44139;SDS011;29803;51.048;4.686;2023-03-14T02:05:28;16.92;;;2.40;;
44139;SDS011;29803;51.048;4.686;2023-03-14T02:08:08;10.02;;;2.17;;
44139;SDS011;29803;51.048;4.686;2023-03-14T02:10:47;15.77;;;2.10;;
44139;SDS011;29803;51.048;4.686;2023-03-14T02:13:39;11.02;;;1.45;;
44139;SDS011;29803;51.048;4.686;2023-03-14T02:16:10;10.90;;;1.52;;
44139;SDS011;29803;51.048;4.686;2023-03-14T02:18:51;10.13;;;1.52;;
44139;SDS011;29803;51.048;4.686;2023-03-14T02:21:37;13.13;;;1.98;;
44139;SDS011;29803;51.048;4.686;2023-03-14T02:27:38;10.00;;;1.20;;
44139;SDS011;29803;51.048;4.686;2023-03-14T02:30:29;8.60;;;1.65;;
44139;SDS011;29803;51.048;4.686;2023-03-14T02:33:16;17.52;;;1.67;;
44139;SDS011;29803;51.048;4.686;2023-03-14T02:35:51;6.55;;;2.03;;
44139;SDS011;29803;51.048;4.686;2023-03-14T02:41:33;8.48;;;1.08;;
44139;SDS011;29803;51.048;4.686;2023-03-14T02:44:03;9.68;;;0.98;;
44139;SDS011;29803;51.048;4.686;2023-03-14T02:46:34;9.43;;;1.05;;
44139;SDS011;29803;51.048;4.686;2023-03-14T02:49:07;2.35;;;0.47;;
44139;SDS011;29803;51.048;4.686;2023-03-14T02:51:40;3.05;;;0.40;;
44139;SDS011;29803;51.048;4.686;2023-03-14T02:54:13;4.43;;;0.60;;
44139;SDS011;29803;51.048;4.686;2023-03-14T02:56:45;5.55;;;0.80;;
44139;SDS011;29803;51.048;4.686;2023-03-14T02:59:16;4.50;;;0.80;;
44139;SDS011;29803;51.048;4.686;2023-03-14T03:01:46;9.65;;;0.77;;
44139;SDS011;29803;51.048;4.686;2023-03-14T03:04:17;5.10;;;0.70;;
44139;SDS011;29803;51.048;4.686;2023-03-14T03:06:47;4.10;;;0.60;;
44139;SDS011;29803;51.048;4.686;2023-03-14T03:09:18;3.75;;;0.70;;
44139;SDS011;29803;51.048;4.686;2023-03-14T03:11:48;7.47;;;1.05;;
44139;SDS011;29803;51.048;4.686;2023-03-14T03:14:19;6.13;;;1.00;;
44139;SDS011;29803;51.048;4.686;2023-03-14T03:16:49;3.22;;;0.82;;
44139;SDS011;29803;51.048;4.686;2023-03-14T03:19:20;7.90;;;1.25;;
44139;SDS011;29803;51.048;4.686;2023-03-14T03:21:50;5.75;;;1.10;;
44139;SDS011;29803;51.048;4.686;2023-03-14T03:24:21;4.78;;;1.20;;
44139;SDS011;29803;51.048;4.686;2023-03-14T03:26:52;3.47;;;1.15;;
44139;SDS011;29803;51.048;4.686;2023-03-14T03:29:23;3.90;;;1.45;;
44139;SDS011;29803;51.048;4.686;2023-03-14T03:31:53;11.65;;;2.35;;
44139;SDS011;29803;51.048;4.686;2023-03-14T03:34:24;9.15;;;1.20;;
44139;SDS011;29803;51.048;4.686;2023-03-14T03:36:56;5.05;;;1.30;;
44139;SDS011;29803;51.048;4.686;2023-03-14T03:39:27;7.05;;;1.25;;
44139;SDS011;29803;51.048;4.686;2023-03-14T03:41:57;6.32;;;1.35;;
44139;SDS011;29803;51.048;4.686;2023-03-14T03:44:28;7.97;;;1.48;;
44139;SDS011;29803;51.048;4.686;2023-03-14T03:46:58;6.00;;;1.65;;
44139;SDS011;29803;51.048;4.686;2023-03-14T03:49:29;12.52;;;1.92;;
44139;SDS011;29803;51.048;4.686;2023-03-14T03:52:01;9.02;;;1.77;;
44139;SDS011;29803;51.048;4.686;2023-03-14T03:54:31;10.70;;;2.33;;
44139;SDS011;29803;51.048;4.686;2023-03-14T03:57:02;5.68;;;1.65;;
44139;SDS011;29803;51.048;4.686;2023-03-14T03:59:32;9.45;;;1.65;;
44139;SDS011;29803;51.048;4.686;2023-03-14T04:02:03;13.02;;;2.30;;
44139;SDS011;29803;51.048;4.686;2023-03-14T04:04:34;6.45;;;1.70;;
44139;SDS011;29803;51.048;4.686;2023-03-14T04:07:04;16.13;;;2.28;;
44139;SDS011;29803;51.048;4.686;2023-03-14T04:09:37;11.65;;;2.33;;
44139;SDS011;29803;51.048;4.686;2023-03-14T04:12:07;8.52;;;2.17;;
44139;SDS011;29803;51.048;4.686;2023-03-14T04:14:38;8.30;;;1.80;;
44139;SDS011;29803;51.048;4.686;2023-03-14T04:17:08;11.20;;;2.70;;
44139;SDS011;29803;51.048;4.686;2023-03-14T04:19:39;11.88;;;2.20;;
44139;SDS011;29803;51.048;4.686;2023-03-14T04:22:09;10.48;;;2.17;;
44139;SDS011;29803;51.048;4.686;2023-03-14T04:24:40;12.77;;;2.30;;
44139;SDS011;29803;51.048;4.686;2023-03-14T04:27:10;11.38;;;2.05;;
44139;SDS011;29803;51.048;4.686;2023-03-14T04:29:41;10.93;;;2.30;;
44139;SDS011;29803;51.048;4.686;2023-03-14T04:32:12;9.48;;;1.90;;
44139;SDS011;29803;51.048;4.686;2023-03-14T04:34:42;8.75;;;2.30;;
44139;SDS011;29803;51.048;4.686;2023-03-14T04:37:13;6.10;;;1.63;;
44139;SDS011;29803;51.048;4.686;2023-03-14T04:39:43;11.50;;;3.28;;
44139;SDS011;29803;51.048;4.686;2023-03-14T04:42:14;6.00;;;2.20;;
44139;SDS011;29803;51.048;4.686;2023-03-14T04:44:44;11.10;;;2.47;;
44139;SDS011;29803;51.048;4.686;2023-03-14T04:47:16;7.78;;;2.10;;
44139;SDS011;29803;51.048;4.686;2023-03-14T04:49:47;14.10;;;4.30;;
44139;SDS011;29803;51.048;4.686;2023-03-14T04:52:17;14.23;;;3.15;;
44139;SDS011;29803;51.048;4.686;2023-03-14T04:54:48;13.52;;;2.33;;
44139;SDS011;29803;51.048;4.686;2023-03-14T04:57:18;10.60;;;3.35;;
44139;SDS011;29803;51.048;4.686;2023-03-14T04:59:49;7.10;;;2.53;;
44139;SDS011;29803;51.048;4.686;2023-03-14T05:02:19;8.95;;;3.38;;
44139;SDS011;29803;51.048;4.686;2023-03-14T05:04:50;11.82;;;3.40;;
44139;SDS011;29803;51.048;4.686;2023-03-14T05:07:20;9.93;;;3.33;;
44139;SDS011;29803;51.048;4.686;2023-03-14T05:09:51;7.40;;;2.80;;
44139;SDS011;29803;51.048;4.686;2023-03-14T05:12:23;12.52;;;3.55;;
44139;SDS011;29803;51.048;4.686;2023-03-14T05:14:53;11.10;;;3.78;;
44139;SDS011;29803;51.048;4.686;2023-03-14T05:17:24;11.18;;;3.90;;
44139;SDS011;29803;51.048;4.686;2023-03-14T05:19:54;17.80;;;4.75;;
44139;SDS011;29803;51.048;4.686;2023-03-14T05:22:25;12.65;;;4.63;;
44139;SDS011;29803;51.048;4.686;2023-03-14T05:24:55;10.70;;;3.80;;
44139;SDS011;29803;51.048;4.686;2023-03-14T05:27:28;16.77;;;4.32;;
44139;SDS011;29803;51.048;4.686;2023-03-14T05:29:59;16.67;;;4.60;;
44139;SDS011;29803;51.048;4.686;2023-03-14T05:32:29;12.68;;;4.43;;
44139;SDS011;29803;51.048;4.686;2023-03-14T05:35:00;11.57;;;4.78;;
44139;SDS011;29803;51.048;4.686;2023-03-14T05:37:30;14.57;;;5.13;;
44139;SDS011;29803;51.048;4.686;2023-03-14T05:40:01;11.85;;;4.25;;
44139;SDS011;29803;51.048;4.686;2023-03-14T05:42:31;13.07;;;3.85;;
44139;SDS011;29803;51.048;4.686;2023-03-14T05:45:02;12.30;;;4.32;;
44139;SDS011;29803;51.048;4.686;2023-03-14T05:47:33;11.95;;;3.28;;
44139;SDS011;29803;51.048;4.686;2023-03-14T05:50:04;8.15;;;3.80;;
44139;SDS011;29803;51.048;4.686;2023-03-14T05:52:34;9.80;;;3.55;;
44139;SDS011;29803;51.048;4.686;2023-03-14T05:55:05;11.27;;;3.88;;
44139;SDS011;29803;51.048;4.686;2023-03-14T05:57:36;7.57;;;3.38;;
44139;SDS011;29803;51.048;4.686;2023-03-14T06:00:06;9.55;;;3.85;;
44139;SDS011;29803;51.048;4.686;2023-03-14T06:02:37;8.77;;;3.53;;
44139;SDS011;29803;51.048;4.686;2023-03-14T06:05:08;7.38;;;3.20;;
44139;SDS011;29803;51.048;4.686;2023-03-14T06:07:38;9.95;;;3.22;;
44139;SDS011;29803;51.048;4.686;2023-03-14T06:10:09;9.77;;;3.17;;
44139;SDS011;29803;51.048;4.686;2023-03-14T06:12:40;5.50;;;3.10;;
44139;SDS011;29803;51.048;4.686;2023-03-14T06:15:10;7.45;;;2.97;;
44139;SDS011;29803;51.048;4.686;2023-03-14T06:17:41;9.15;;;3.10;;
44139;SDS011;29803;51.048;4.686;2023-03-14T06:20:11;8.23;;;3.42;;
44139;SDS011;29803;51.048;4.686;2023-03-14T06:22:42;5.93;;;2.40;;
44139;SDS011;29803;51.048;4.686;2023-03-14T06:25:13;5.10;;;2.30;;
44139;SDS011;29803;51.048;4.686;2023-03-14T06:27:44;12.88;;;3.00;;
44139;SDS011;29803;51.048;4.686;2023-03-14T06:30:14;8.30;;;2.70;;
44139;SDS011;29803;51.048;4.686;2023-03-14T06:32:45;8.70;;;2.42;;
44139;SDS011;29803;51.048;4.686;2023-03-14T06:35:15;6.78;;;2.55;;
44139;SDS011;29803;51.048;4.686;2023-03-14T06:37:46;7.45;;;2.33;;
44139;SDS011;29803;51.048;4.686;2023-03-14T06:40:17;6.95;;;2.58;;
44139;SDS011;29803;51.048;4.686;2023-03-14T06:42:49;9.52;;;2.65;;
44139;SDS011;29803;51.048;4.686;2023-03-14T06:45:20;6.57;;;2.85;;
44139;SDS011;29803;51.048;4.686;2023-03-14T06:47:50;5.28;;;2.80;;
44139;SDS011;29803;51.048;4.686;2023-03-14T06:50:21;5.50;;;2.90;;
44139;SDS011;29803;51.048;4.686;2023-03-14T06:52:52;9.80;;;3.22;;
44139;SDS011;29803;51.048;4.686;2023-03-14T06:55:23;7.63;;;3.47;;
44139;SDS011;29803;51.048;4.686;2023-03-14T06:57:53;8.55;;;3.08;;
44139;SDS011;29803;51.048;4.686;2023-03-14T07:00:24;12.23;;;3.15;;
44139;SDS011;29803;51.048;4.686;2023-03-14T07:02:55;4.10;;;1.60;;
44139;SDS011;29803;51.048;4.686;2023-03-14T07:05:25;2.58;;;1.00;;
44139;SDS011;29803;51.048;4.686;2023-03-14T07:07:56;2.83;;;0.80;;
44139;SDS011;29803;51.048;4.686;2023-03-14T07:10:27;4.80;;;1.20;;
44139;SDS011;29803;51.048;4.686;2023-03-14T07:12:57;1.55;;;0.98;;
44139;SDS011;29803;51.048;4.686;2023-03-14T07:15:28;2.30;;;1.17;;
44139;SDS011;29803;51.048;4.686;2023-03-14T07:18:00;4.45;;;1.42;;
44139;SDS011;29803;51.048;4.686;2023-03-14T07:20:30;2.28;;;1.30;;
44139;SDS011;29803;51.048;4.686;2023-03-14T07:23:02;9.32;;;3.22;;
44139;SDS011;29803;51.048;4.686;2023-03-14T07:25:33;5.38;;;3.90;;
44139;SDS011;29803;51.048;4.686;2023-03-14T07:28:03;6.95;;;3.88;;
44139;SDS011;29803;51.048;4.686;2023-03-14T07:30:34;9.27;;;3.35;;
44139;SDS011;29803;51.048;4.686;2023-03-14T07:33:05;8.55;;;3.33;;
44139;SDS011;29803;51.048;4.686;2023-03-14T07:35:35;5.47;;;2.08;;
44139;SDS011;29803;51.048;4.686;2023-03-14T07:38:07;5.35;;;1.77;;
44139;SDS011;29803;51.048;4.686;2023-03-14T07:40:37;5.20;;;1.50;;
44139;SDS011;29803;51.048;4.686;2023-03-14T07:43:08;3.80;;;1.30;;
44139;SDS011;29803;51.048;4.686;2023-03-14T07:45:38;4.53;;;1.30;;
44139;SDS011;29803;51.048;4.686;2023-03-14T07:48:09;5.90;;;1.33;;
44139;SDS011;29803;51.048;4.686;2023-03-14T07:50:39;5.50;;;1.38;;
44139;SDS011;29803;51.048;4.686;2023-03-14T07:53:10;10.30;;;1.95;;
44139;SDS011;29803;51.048;4.686;2023-03-14T07:55:40;5.80;;;1.40;;
44139;SDS011;29803;51.048;4.686;2023-03-14T07:58:11;2.63;;;1.48;;
44139;SDS011;29803;51.048;4.686;2023-03-14T08:00:42;7.43;;;1.42;;
44139;SDS011;29803;51.048;4.686;2023-03-14T08:03:13;5.43;;;1.70;;
44139;SDS011;29803;51.048;4.686;2023-03-14T08:05:46;9.77;;;1.70;;
44139;SDS011;29803;51.048;4.686;2023-03-14T08:08:17;5.65;;;1.88;;
44139;SDS011;29803;51.048;4.686;2023-03-14T08:10:48;4.57;;;2.28;;
44139;SDS011;29803;51.048;4.686;2023-03-14T08:13:19;8.80;;;2.65;;
44139;SDS011;29803;51.048;4.686;2023-03-14T08:15:51;13.80;;;3.80;;
44139;SDS011;29803;51.048;4.686;2023-03-14T08:18:21;7.80;;;3.22;;
44139;SDS011;29803;51.048;4.686;2023-03-14T08:20:52;8.35;;;1.95;;
44139;SDS011;29803;51.048;4.686;2023-03-14T08:23:22;10.00;;;2.83;;
44139;SDS011;29803;51.048;4.686;2023-03-14T08:25:53;8.73;;;2.20;;
44139;SDS011;29803;51.048;4.686;2023-03-14T08:28:23;5.47;;;1.80;;
44139;SDS011;29803;51.048;4.686;2023-03-14T08:30:54;7.25;;;2.45;;
44139;SDS011;29803;51.048;4.686;2023-03-14T08:33:25;11.13;;;3.03;;
44139;SDS011;29803;51.048;4.686;2023-03-14T08:35:58;6.25;;;2.88;;
44139;SDS011;29803;51.048;4.686;2023-03-14T08:38:30;5.43;;;1.98;;
44139;SDS011;29803;51.048;4.686;2023-03-14T08:41:01;8.13;;;1.60;;
44139;SDS011;29803;51.048;4.686;2023-03-14T08:43:32;4.57;;;1.42;;
44139;SDS011;29803;51.048;4.686;2023-03-14T08:46:03;4.97;;;1.30;;
44139;SDS011;29803;51.048;4.686;2023-03-14T08:48:33;3.92;;;1.45;;
44139;SDS011;29803;51.048;4.686;2023-03-14T08:51:06;3.70;;;1.00;;
44139;SDS011;29803;51.048;4.686;2023-03-14T08:53:37;7.20;;;1.58;;
44139;SDS011;29803;51.048;4.686;2023-03-14T08:56:08;8.18;;;1.67;;
44139;SDS011;29803;51.048;4.686;2023-03-14T08:58:39;7.70;;;1.63;;
44139;SDS011;29803;51.048;4.686;2023-03-14T09:01:11;3.80;;;1.13;;
44139;SDS011;29803;51.048;4.686;2023-03-14T09:03:42;2.40;;;1.38;;
44139;SDS011;29803;51.048;4.686;2023-03-14T09:06:12;5.03;;;1.10;;
44139;SDS011;29803;51.048;4.686;2023-03-14T09:08:43;4.68;;;1.55;;
44139;SDS011;29803;51.048;4.686;2023-03-14T09:11:15;3.28;;;1.10;;
44139;SDS011;29803;51.048;4.686;2023-03-14T09:13:47;8.05;;;1.92;;
44139;SDS011;29803;51.048;4.686;2023-03-14T09:16:18;9.25;;;3.15;;
44139;SDS011;29803;51.048;4.686;2023-03-14T09:18:49;7.18;;;2.60;;
44139;SDS011;29803;51.048;4.686;2023-03-14T09:21:20;6.53;;;2.92;;
44139;SDS011;29803;51.048;4.686;2023-03-14T09:23:51;8.10;;;2.90;;
44139;SDS011;29803;51.048;4.686;2023-03-14T09:26:22;5.82;;;1.30;;
44139;SDS011;29803;51.048;4.686;2023-03-14T09:28:52;8.15;;;1.30;;
44139;SDS011;29803;51.048;4.686;2023-03-14T09:31:23;8.25;;;1.50;;
44139;SDS011;29803;51.048;4.686;2023-03-14T09:33:53;5.45;;;1.92;;
44139;SDS011;29803;51.048;4.686;2023-03-14T09:36:24;7.20;;;1.90;;
44139;SDS011;29803;51.048;4.686;2023-03-14T09:38:54;6.00;;;2.20;;
44139;SDS011;29803;51.048;4.686;2023-03-14T09:41:27;3.75;;;1.80;;
44139;SDS011;29803;51.048;4.686;2023-03-14T09:44:04;4.00;;;1.23;;
44139;SDS011;29803;51.048;4.686;2023-03-14T09:46:39;1.25;;;0.65;;
44139;SDS011;29803;51.048;4.686;2023-03-14T09:52:08;3.88;;;1.00;;
44139;SDS011;29803;51.048;4.686;2023-03-14T09:57:35;2.95;;;1.30;;
44139;SDS011;29803;51.048;4.686;2023-03-14T10:00:10;5.88;;;1.40;;
44139;SDS011;29803;51.048;4.686;2023-03-14T10:02:50;3.65;;;0.90;;
44139;SDS011;29803;51.048;4.686;2023-03-14T10:05:24;1.95;;;0.90;;
44139;SDS011;29803;51.048;4.686;2023-03-14T10:07:56;2.10;;;0.70;;
44139;SDS011;29803;51.048;4.686;2023-03-14T10:10:27;1.90;;;0.88;;
44139;SDS011;29803;51.048;4.686;2023-03-14T10:18:37;5.93;;;2.40;;
44139;SDS011;29803;51.048;4.686;2023-03-14T10:24:25;3.08;;;1.70;;
44139;SDS011;29803;51.048;4.686;2023-03-14T10:27:00;5.90;;;1.60;;
44139;SDS011;29803;51.048;4.686;2023-03-14T10:29:33;9.27;;;3.38;;
44139;SDS011;29803;51.048;4.686;2023-03-14T10:32:05;8.23;;;4.28;;
44139;SDS011;29803;51.048;4.686;2023-03-14T10:34:38;7.95;;;3.63;;
44139;SDS011;29803;51.048;4.686;2023-03-14T10:39:52;13.45;;;7.15;;
44139;SDS011;29803;51.048;4.686;2023-03-14T10:42:26;6.28;;;2.67;;
44139;SDS011;29803;51.048;4.686;2023-03-14T10:48:23;15.15;;;7.70;;
44139;SDS011;29803;51.048;4.686;2023-03-14T10:53:43;4.50;;;1.60;;
44139;SDS011;29803;51.048;4.686;2023-03-14T10:59:07;4.50;;;1.60;;
44139;SDS011;29803;51.048;4.686;2023-03-14T11:08:01;3.38;;;2.38;;
44139;SDS011;29803;51.048;4.686;2023-03-14T11:10:38;8.38;;;3.17;;
44139;SDS011;29803;51.048;4.686;2023-03-14T11:13:15;8.50;;;2.60;;
44139;SDS011;29803;51.048;4.686;2023-03-14T11:25:03;6.85;;;1.35;;
44139;SDS011;29803;51.048;4.686;2023-03-14T11:27:49;2.08;;;0.80;;
44139;SDS011;29803;51.048;4.686;2023-03-14T11:30:47;4.90;;;0.97;;
44139;SDS011;29803;51.048;4.686;2023-03-14T11:33:25;5.10;;;1.17;;
44139;SDS011;29803;51.048;4.686;2023-03-14T11:36:14;5.43;;;0.93;;
44139;SDS011;29803;51.048;4.686;2023-03-14T11:38:52;4.97;;;1.15;;
44139;SDS011;29803;51.048;4.686;2023-03-14T11:44:01;8.07;;;1.35;;
44139;SDS011;29803;51.048;4.686;2023-03-14T11:46:42;5.18;;;1.00;;
44139;SDS011;29803;51.048;4.686;2023-03-14T11:52:08;6.35;;;1.10;;
44139;SDS011;29803;51.048;4.686;2023-03-14T11:57:20;12.07;;;2.15;;
44139;SDS011;29803;51.048;4.686;2023-03-14T11:59:55;9.55;;;1.38;;
44139;SDS011;29803;51.048;4.686;2023-03-14T12:10:40;20.08;;;1.98;;
44139;SDS011;29803;51.048;4.686;2023-03-14T12:13:16;16.88;;;2.17;;
44139;SDS011;29803;51.048;4.686;2023-03-14T12:15:48;15.73;;;2.15;;
44139;SDS011;29803;51.048;4.686;2023-03-14T12:21:13;18.15;;;2.15;;
44139;SDS011;29803;51.048;4.686;2023-03-14T12:23:44;11.13;;;2.08;;
44139;SDS011;29803;51.048;4.686;2023-03-14T12:26:21;17.42;;;2.08;;
44139;SDS011;29803;51.048;4.686;2023-03-14T12:31:47;18.17;;;2.67;;
44139;SDS011;29803;51.048;4.686;2023-03-14T12:42:21;10.45;;;2.08;;
44139;SDS011;29803;51.048;4.686;2023-03-14T12:51:02;11.82;;;2.72;;
44139;SDS011;29803;51.048;4.686;2023-03-14T12:53:40;22.33;;;3.30;;
44139;SDS011;29803;51.048;4.686;2023-03-14T12:56:44;24.27;;;4.07;;
44139;SDS011;29803;51.048;4.686;2023-03-14T13:05:21;31.02;;;3.88;;
44139;SDS011;29803;51.048;4.686;2023-03-14T13:10:25;16.35;;;3.15;;
44139;SDS011;29803;51.048;4.686;2023-03-14T13:15:54;27.88;;;3.50;;
44139;SDS011;29803;51.048;4.686;2023-03-14T13:18:39;13.63;;;2.25;;
44139;SDS011;29803;51.048;4.686;2023-03-14T13:21:13;18.85;;;2.63;;
44139;SDS011;29803;51.048;4.686;2023-03-14T13:26:51;14.80;;;2.70;;
44139;SDS011;29803;51.048;4.686;2023-03-14T13:29:25;22.52;;;4.65;;
44139;SDS011;29803;51.048;4.686;2023-03-14T13:31:58;18.55;;;3.03;;
44139;SDS011;29803;51.048;4.686;2023-03-14T13:34:32;17.60;;;2.50;;
44139;SDS011;29803;51.048;4.686;2023-03-14T13:37:04;20.92;;;3.00;;
44139;SDS011;29803;51.048;4.686;2023-03-14T13:39:35;23.02;;;4.28;;
44139;SDS011;29803;51.048;4.686;2023-03-14T13:42:10;18.25;;;5.28;;
44139;SDS011;29803;51.048;4.686;2023-03-14T13:44:45;21.92;;;3.38;;
44139;SDS011;29803;51.048;4.686;2023-03-14T13:47:17;14.38;;;2.88;;
44139;SDS011;29803;51.048;4.686;2023-03-14T13:49:50;23.75;;;2.53;;
44139;SDS011;29803;51.048;4.686;2023-03-14T13:54:53;15.65;;;3.13;;
44139;SDS011;29803;51.048;4.686;2023-03-14T13:57:24;18.15;;;2.40;;
44139;SDS011;29803;51.048;4.686;2023-03-14T14:03:02;19.05;;;2.30;;
44139;SDS011;29803;51.048;4.686;2023-03-14T14:05:33;23.67;;;2.65;;
44139;SDS011;29803;51.048;4.686;2023-03-14T14:08:10;11.75;;;1.90;;
44139;SDS011;29803;51.048;4.686;2023-03-14T14:10:42;18.25;;;1.90;;
44139;SDS011;29803;51.048;4.686;2023-03-14T14:13:14;14.23;;;2.63;;
44139;SDS011;29803;51.048;4.686;2023-03-14T14:15:50;10.43;;;1.90;;
44139;SDS011;29803;51.048;4.686;2023-03-14T14:18:23;10.95;;;1.88;;
44139;SDS011;29803;51.048;4.686;2023-03-14T14:20:57;8.10;;;1.50;;
44139;SDS011;29803;51.048;4.686;2023-03-14T14:23:28;6.95;;;1.20;;
44139;SDS011;29803;51.048;4.686;2023-03-14T14:26:01;9.00;;;1.23;;
44139;SDS011;29803;51.048;4.686;2023-03-14T14:28:36;7.00;;;1.20;;
44139;SDS011;29803;51.048;4.686;2023-03-14T14:33:58;10.90;;;1.38;;
44139;SDS011;29803;51.048;4.686;2023-03-14T14:41:56;10.60;;;1.20;;
44139;SDS011;29803;51.048;4.686;2023-03-14T14:44:29;6.93;;;1.48;;
44139;SDS011;29803;51.048;4.686;2023-03-14T14:47:02;4.40;;;1.02;;
44139;SDS011;29803;51.048;4.686;2023-03-14T14:49:33;8.73;;;1.00;;
44139;SDS011;29803;51.048;4.686;2023-03-14T14:52:08;8.05;;;1.20;;
44139;SDS011;29803;51.048;4.686;2023-03-14T14:54:44;11.52;;;1.48;;
44139;SDS011;29803;51.048;4.686;2023-03-14T14:57:17;9.68;;;1.50;;
44139;SDS011;29803;51.048;4.686;2023-03-14T15:05:17;8.30;;;1.23;;
44139;SDS011;29803;51.048;4.686;2023-03-14T15:07:50;4.72;;;0.60;;
44139;SDS011;29803;51.048;4.686;2023-03-14T15:10:22;2.88;;;0.52;;
44139;SDS011;29803;51.048;4.686;2023-03-14T15:12:54;6.80;;;1.00;;
44139;SDS011;29803;51.048;4.686;2023-03-14T15:15:24;4.45;;;0.63;;
44139;SDS011;29803;51.048;4.686;2023-03-14T15:17:55;4.07;;;1.23;;
44139;SDS011;29803;51.048;4.686;2023-03-14T15:20:26;6.38;;;1.30;;
44139;SDS011;29803;51.048;4.686;2023-03-14T15:22:56;4.78;;;1.63;;
44139;SDS011;29803;51.048;4.686;2023-03-14T15:25:27;2.97;;;1.02;;
44139;SDS011;29803;51.048;4.686;2023-03-14T15:27:57;10.20;;;1.45;;
44139;SDS011;29803;51.048;4.686;2023-03-14T15:30:28;3.35;;;0.95;;
44139;SDS011;29803;51.048;4.686;2023-03-14T15:32:58;5.20;;;1.08;;
44139;SDS011;29803;51.048;4.686;2023-03-14T15:35:29;5.30;;;1.10;;
44139;SDS011;29803;51.048;4.686;2023-03-14T15:37:59;4.60;;;0.90;;
44139;SDS011;29803;51.048;4.686;2023-03-14T15:40:30;10.23;;;1.25;;
44139;SDS011;29803;51.048;4.686;2023-03-14T15:43:01;6.30;;;1.30;;
44139;SDS011;29803;51.048;4.686;2023-03-14T15:45:32;11.73;;;1.88;;
44139;SDS011;29803;51.048;4.686;2023-03-14T15:48:03;13.88;;;2.90;;
44139;SDS011;29803;51.048;4.686;2023-03-14T15:50:34;8.40;;;1.83;;
44139;SDS011;29803;51.048;4.686;2023-03-14T15:53:04;15.13;;;2.03;;
44139;SDS011;29803;51.048;4.686;2023-03-14T15:55:36;19.13;;;2.00;;
44139;SDS011;29803;51.048;4.686;2023-03-14T15:58:09;12.63;;;1.70;;
44139;SDS011;29803;51.048;4.686;2023-03-14T16:00:47;10.27;;;1.60;;
44139;SDS011;29803;51.048;4.686;2023-03-14T16:03:18;11.35;;;1.80;;
44139;SDS011;29803;51.048;4.686;2023-03-14T16:05:48;12.15;;;1.42;;
44139;SDS011;29803;51.048;4.686;2023-03-14T16:08:19;14.10;;;1.63;;
44139;SDS011;29803;51.048;4.686;2023-03-14T16:10:49;5.18;;;1.40;;
44139;SDS011;29803;51.048;4.686;2023-03-14T16:13:20;13.73;;;2.10;;
44139;SDS011;29803;51.048;4.686;2023-03-14T16:18:42;10.25;;;1.95;;
44139;SDS011;29803;51.048;4.686;2023-03-14T16:21:14;10.25;;;1.52;;
44139;SDS011;29803;51.048;4.686;2023-03-14T16:23:46;11.65;;;1.73;;
44139;SDS011;29803;51.048;4.686;2023-03-14T16:26:18;19.08;;;1.92;;
44139;SDS011;29803;51.048;4.686;2023-03-14T16:28:49;11.48;;;2.28;;
44139;SDS011;29803;51.048;4.686;2023-03-14T16:31:20;9.73;;;1.35;;
44139;SDS011;29803;51.048;4.686;2023-03-14T16:33:52;9.65;;;1.35;;
44139;SDS011;29803;51.048;4.686;2023-03-14T16:36:23;13.45;;;2.13;;
44139;SDS011;29803;51.048;4.686;2023-03-14T16:38:54;14.00;;;1.48;;
44139;SDS011;29803;51.048;4.686;2023-03-14T16:41:24;11.95;;;2.22;;
44139;SDS011;29803;51.048;4.686;2023-03-14T16:43:59;13.20;;;1.70;;
44139;SDS011;29803;51.048;4.686;2023-03-14T16:46:30;10.30;;;1.77;;
44139;SDS011;29803;51.048;4.686;2023-03-14T16:49:01;7.68;;;1.48;;
44139;SDS011;29803;51.048;4.686;2023-03-14T16:51:33;16.75;;;2.03;;
44139;SDS011;29803;51.048;4.686;2023-03-14T16:54:03;11.77;;;1.60;;
44139;SDS011;29803;51.048;4.686;2023-03-14T16:56:34;14.07;;;1.92;;
44139;SDS011;29803;51.048;4.686;2023-03-14T16:59:04;8.65;;;1.55;;
44139;SDS011;29803;51.048;4.686;2023-03-14T17:01:36;12.68;;;2.08;;
44139;SDS011;29803;51.048;4.686;2023-03-14T17:04:07;6.63;;;1.35;;
44139;SDS011;29803;51.048;4.686;2023-03-14T17:06:38;13.20;;;2.60;;
44139;SDS011;29803;51.048;4.686;2023-03-14T17:09:08;20.23;;;2.40;;
44139;SDS011;29803;51.048;4.686;2023-03-14T17:11:39;9.45;;;1.60;;
44139;SDS011;29803;51.048;4.686;2023-03-14T17:14:09;9.23;;;1.80;;
44139;SDS011;29803;51.048;4.686;2023-03-14T17:16:40;14.65;;;2.55;;
44139;SDS011;29803;51.048;4.686;2023-03-14T17:19:10;14.90;;;1.95;;